Sintra current weather conditions

sailwx.info

Wind from 160 at 8 knots

Air temperature 24.0° C
Dewpoint 14.0° C

Last reported at 2014-Oct-30 14:00 UTC.
Time now 2014-Oct-30 16:08 UTC

Location: N 38°50' W 009°20'.
View on Google Maps.

See reports from other nearby stations

  
Tides and Currents Weather Stations Pressure Air Temp Water Temp Dewpoint Dewpoint Depression Visibility Wind Speed Wind Dir Waves Ship Positions
date/time (UTC)wind fromknots sea level pressurealtimeterstation pressurevisibilityair tempwater tempwave heightnotes
2014-Oct-30 15:00 150 7 24.0
2014-Oct-30 14:00 160 8 24.0
2014-Oct-30 13:00 150 10 24.0
2014-Oct-30 12:00 140 16 23.0
2014-Oct-30 11:00 140 17 22.0
2014-Oct-30 10:00 120 11 21.0
2014-Oct-30 09:00 19.0
2014-Oct-30 08:00 110 4 17.0
2014-Oct-30 07:00 180 3 17.0
2014-Oct-29 17:00 110 9 24.0
2014-Oct-29 16:00 120 12 24.0
2014-Oct-29 15:00 110 10 24.0
2014-Oct-29 14:00 090 8 24.0
2014-Oct-29 13:00 120 9 24.0
2014-Oct-29 12:00 150 7 23.0
2014-Oct-29 11:00 120 8 22.0
2014-Oct-29 10:00 120 8 20.0
2014-Oct-29 09:00 130 10 18.0
2014-Oct-29 08:00 130 8 16.0
2014-Oct-29 07:00 140 6 16.0
2014-Oct-28 17:00 080 3 21.0
2014-Oct-28 16:00 110 6 22.0